Airfield :
LOGIN :

Register | Disclaimer

   EN    FR    IT 

 










Legend :    VFR   Marginal VFR   IFR   Intensive IFR   Very Intensive IFR
Visi :
Ceiling :
>= 8 km
>= 3000ft
5 to 8 km
1000 to 3000 ft
1500m to 5 km
500 to 1000 ft
800 to 1500m
200 to 500 ft
< 800m
< 200 ft
Symbols :   Thunderstorms  Fog  Heavy snow  Heavy precipitations  Wind > 20 kt
SIGMETs :     Misc.  Thunderstorms  Icing  Turbulence  Mountain Waves  Volcanic Ashes






- Airport Elevation : 650 ft
- IATA code : ZJI


LSZL - Locarno

CURRENT METAR :
  • 141420Z AUTO 25004KT 9999NDV NCD 25/12 Q1020 RMK

EXPIRED METARs :
  • 141350Z AUTO 24004KT 9999NDV NCD 23/13 Q1020 RMK
  • 141320Z AUTO 26003KT 230V290 9999NDV NCD 24/12 Q1021 RMK
  • 141250Z AUTO 27004KT 240V300 9999NDV NCD 22/10 Q1021 RMK
  • 141220Z AUTO 27004KT 240V320 9999NDV NCD 21/09 Q1022 RMK
  • 141150Z AUTO 26005KT 230V290 9999NDV NCD 22/09 Q1022 RMK
  • 141120Z AUTO 26006KT 9999NDV NCD 21/09 Q1023 RMK
  • 141050Z AUTO 25007KT 9999NDV NCD 21/09 Q1023 RMK
  • 140950Z AUTO 00000KT 9999NDV NCD 22/11 Q1024 RMK

TAF TAF LSZL
Valid from the 14 at 12:00 until the 14 at 21:00 UTC


141125Z 1412/1421 25006KT CAVOK
PROB40
TEMPO 1412/1416 9999 FEW050
BECMG 1418/1421 9999 SCT050



MET'MAP, your aeronautical weather chart ! - Copyright ORBIFLY December 2007 - Disclaimer

ORBIFLY MET'MAP TEAM :

Programming & Development : Alexandra Zaïnal
Original concept : Baudouin d'Aumeries
Technical & hardware support : Manuel Goepfert
Assistance : Marc-Olivier Méhu




SOURCES & CREDITS :

   NOAA